sensor_id;sensor_type;location;lat;lon;timestamp;P1;durP1;ratioP1;P2;durP2;ratioP2
739;SDS011;354;42.694;23.336;2023-03-16T00:01:39;5.53;;;5.33;;
739;SDS011;354;42.694;23.336;2023-03-16T00:04:04;5.33;;;5.13;;
739;SDS011;354;42.694;23.336;2023-03-16T00:06:30;5.63;;;5.43;;
739;SDS011;354;42.694;23.336;2023-03-16T00:08:55;5.63;;;5.33;;
739;SDS011;354;42.694;23.336;2023-03-16T00:11:26;5.83;;;5.63;;
739;SDS011;354;42.694;23.336;2023-03-16T00:13:51;5.60;;;5.40;;
739;SDS011;354;42.694;23.336;2023-03-16T00:16:17;4.70;;;4.50;;
739;SDS011;354;42.694;23.336;2023-03-16T00:18:43;5.27;;;5.07;;
739;SDS011;354;42.694;23.336;2023-03-16T00:21:08;5.23;;;5.03;;
739;SDS011;354;42.694;23.336;2023-03-16T00:23:35;5.77;;;5.57;;
739;SDS011;354;42.694;23.336;2023-03-16T00:26:04;7.10;;;6.80;;
739;SDS011;354;42.694;23.336;2023-03-16T00:28:32;7.43;;;7.13;;
739;SDS011;354;42.694;23.336;2023-03-16T00:31:01;6.83;;;6.43;;
739;SDS011;354;42.694;23.336;2023-03-16T00:33:31;7.20;;;6.93;;
739;SDS011;354;42.694;23.336;2023-03-16T00:36:02;7.00;;;6.70;;
739;SDS011;354;42.694;23.336;2023-03-16T00:38:33;9.63;;;9.23;;
739;SDS011;354;42.694;23.336;2023-03-16T00:41:03;6.23;;;6.03;;
739;SDS011;354;42.694;23.336;2023-03-16T00:43:31;7.07;;;6.77;;
739;SDS011;354;42.694;23.336;2023-03-16T00:46:05;7.20;;;6.90;;
739;SDS011;354;42.694;23.336;2023-03-16T00:48:36;8.70;;;8.30;;
739;SDS011;354;42.694;23.336;2023-03-16T00:51:03;9.07;;;8.77;;
739;SDS011;354;42.694;23.336;2023-03-16T00:53:34;8.50;;;8.20;;
739;SDS011;354;42.694;23.336;2023-03-16T00:56:01;8.37;;;8.03;;
739;SDS011;354;42.694;23.336;2023-03-16T00:58:31;8.20;;;7.90;;
739;SDS011;354;42.694;23.336;2023-03-16T01:01:03;6.77;;;6.47;;
739;SDS011;354;42.694;23.336;2023-03-16T01:03:31;6.50;;;6.27;;
739;SDS011;354;42.694;23.336;2023-03-16T01:05:57;7.67;;;7.37;;
739;SDS011;354;42.694;23.336;2023-03-16T01:08:27;7.90;;;7.60;;
739;SDS011;354;42.694;23.336;2023-03-16T01:10:55;6.97;;;6.67;;
739;SDS011;354;42.694;23.336;2023-03-16T01:13:21;8.73;;;8.40;;
739;SDS011;354;42.694;23.336;2023-03-16T01:15:49;6.97;;;6.77;;
739;SDS011;354;42.694;23.336;2023-03-16T01:18:15;7.47;;;7.07;;
739;SDS011;354;42.694;23.336;2023-03-16T01:20:41;9.40;;;9.00;;
739;SDS011;354;42.694;23.336;2023-03-16T01:23:14;8.20;;;7.90;;
739;SDS011;354;42.694;23.336;2023-03-16T01:25:40;6.77;;;6.57;;
739;SDS011;354;42.694;23.336;2023-03-16T01:28:06;6.63;;;6.33;;
739;SDS011;354;42.694;23.336;2023-03-16T01:30:31;7.30;;;7.00;;
739;SDS011;354;42.694;23.336;2023-03-16T01:32:57;9.43;;;9.03;;
739;SDS011;354;42.694;23.336;2023-03-16T01:35:22;8.53;;;8.23;;
739;SDS011;354;42.694;23.336;2023-03-16T01:37:48;7.67;;;7.37;;
739;SDS011;354;42.694;23.336;2023-03-16T01:40:13;8.10;;;7.80;;
739;SDS011;354;42.694;23.336;2023-03-16T01:42:43;7.67;;;7.37;;
739;SDS011;354;42.694;23.336;2023-03-16T01:48:17;6.63;;;6.43;;
739;SDS011;354;42.694;23.336;2023-03-16T01:50:43;6.83;;;6.63;;
739;SDS011;354;42.694;23.336;2023-03-16T01:53:09;7.03;;;6.83;;
739;SDS011;354;42.694;23.336;2023-03-16T01:55:35;7.20;;;6.90;;
739;SDS011;354;42.694;23.336;2023-03-16T01:58:01;7.53;;;7.33;;
739;SDS011;354;42.694;23.336;2023-03-16T02:00:27;8.73;;;8.43;;
739;SDS011;354;42.694;23.336;2023-03-16T02:02:57;7.03;;;6.83;;
739;SDS011;354;42.694;23.336;2023-03-16T02:05:38;6.13;;;5.93;;
739;SDS011;354;42.694;23.336;2023-03-16T02:08:07;7.43;;;7.13;;
739;SDS011;354;42.694;23.336;2023-03-16T02:10:34;6.90;;;6.60;;
739;SDS011;354;42.694;23.336;2023-03-16T02:13:01;8.53;;;8.23;;
739;SDS011;354;42.694;23.336;2023-03-16T02:15:27;7.17;;;6.90;;
739;SDS011;354;42.694;23.336;2023-03-16T02:17:53;8.47;;;8.17;;
739;SDS011;354;42.694;23.336;2023-03-16T02:20:29;8.13;;;7.83;;
739;SDS011;354;42.694;23.336;2023-03-16T02:23:06;7.17;;;6.87;;
739;SDS011;354;42.694;23.336;2023-03-16T02:25:47;7.30;;;7.07;;
739;SDS011;354;42.694;23.336;2023-03-16T02:28:41;6.70;;;6.50;;
739;SDS011;354;42.694;23.336;2023-03-16T02:31:16;8.27;;;7.97;;
739;SDS011;354;42.694;23.336;2023-03-16T02:33:43;8.40;;;8.10;;
739;SDS011;354;42.694;23.336;2023-03-16T02:36:09;9.13;;;8.73;;
739;SDS011;354;42.694;23.336;2023-03-16T02:38:38;8.40;;;8.10;;
739;SDS011;354;42.694;23.336;2023-03-16T02:41:10;9.13;;;8.77;;
739;SDS011;354;42.694;23.336;2023-03-16T02:43:43;11.63;;;11.23;;
739;SDS011;354;42.694;23.336;2023-03-16T02:46:16;12.33;;;11.93;;
739;SDS011;354;42.694;23.336;2023-03-16T02:48:44;11.97;;;11.47;;
739;SDS011;354;42.694;23.336;2023-03-16T02:51:15;11.67;;;11.17;;
739;SDS011;354;42.694;23.336;2023-03-16T02:53:40;11.43;;;11.03;;
739;SDS011;354;42.694;23.336;2023-03-16T02:56:06;11.80;;;11.30;;
739;SDS011;354;42.694;23.336;2023-03-16T02:58:32;11.63;;;11.17;;
739;SDS011;354;42.694;23.336;2023-03-16T03:00:57;15.33;;;14.73;;
739;SDS011;354;42.694;23.336;2023-03-16T03:03:23;13.43;;;12.83;;
739;SDS011;354;42.694;23.336;2023-03-16T03:05:48;11.03;;;10.63;;
739;SDS011;354;42.694;23.336;2023-03-16T03:08:14;12.63;;;12.13;;
739;SDS011;354;42.694;23.336;2023-03-16T03:10:40;11.67;;;11.20;;
739;SDS011;354;42.694;23.336;2023-03-16T03:13:06;12.53;;;12.03;;
739;SDS011;354;42.694;23.336;2023-03-16T03:15:31;11.20;;;10.63;;
739;SDS011;354;42.694;23.336;2023-03-16T03:18:00;12.83;;;12.33;;
739;SDS011;354;42.694;23.336;2023-03-16T03:20:25;13.40;;;12.90;;
739;SDS011;354;42.694;23.336;2023-03-16T03:22:51;13.03;;;12.53;;
739;SDS011;354;42.694;23.336;2023-03-16T03:25:17;12.60;;;12.10;;
739;SDS011;354;42.694;23.336;2023-03-16T03:27:44;12.13;;;11.73;;
739;SDS011;354;42.694;23.336;2023-03-16T03:30:12;13.20;;;12.70;;
739;SDS011;354;42.694;23.336;2023-03-16T03:32:42;14.90;;;14.30;;
739;SDS011;354;42.694;23.336;2023-03-16T03:35:08;14.60;;;14.00;;
739;SDS011;354;42.694;23.336;2023-03-16T03:37:39;12.30;;;11.90;;
739;SDS011;354;42.694;23.336;2023-03-16T03:40:06;12.90;;;12.40;;
739;SDS011;354;42.694;23.336;2023-03-16T03:42:34;13.07;;;12.57;;
739;SDS011;354;42.694;23.336;2023-03-16T03:44:59;12.83;;;12.33;;
739;SDS011;354;42.694;23.336;2023-03-16T03:47:25;12.57;;;12.07;;
739;SDS011;354;42.694;23.336;2023-03-16T03:49:50;13.93;;;13.43;;
739;SDS011;354;42.694;23.336;2023-03-16T03:52:15;13.90;;;13.40;;
739;SDS011;354;42.694;23.336;2023-03-16T03:54:41;13.70;;;13.20;;
739;SDS011;354;42.694;23.336;2023-03-16T03:57:06;13.67;;;13.17;;
739;SDS011;354;42.694;23.336;2023-03-16T03:59:32;11.50;;;10.90;;
739;SDS011;354;42.694;23.336;2023-03-16T04:01:58;13.13;;;12.63;;
739;SDS011;354;42.694;23.336;2023-03-16T04:04:24;11.77;;;11.37;;
739;SDS011;354;42.694;23.336;2023-03-16T04:06:50;12.77;;;12.27;;
739;SDS011;354;42.694;23.336;2023-03-16T04:09:15;12.43;;;11.93;;
739;SDS011;354;42.694;23.336;2023-03-16T04:11:41;12.40;;;11.90;;
739;SDS011;354;42.694;23.336;2023-03-16T04:14:06;11.73;;;11.33;;
739;SDS011;354;42.694;23.336;2023-03-16T04:16:32;12.03;;;11.53;;
739;SDS011;354;42.694;23.336;2023-03-16T04:18:58;12.23;;;11.70;;
739;SDS011;354;42.694;23.336;2023-03-16T04:21:23;12.43;;;11.93;;
739;SDS011;354;42.694;23.336;2023-03-16T04:23:49;11.93;;;11.43;;
739;SDS011;354;42.694;23.336;2023-03-16T04:26:18;10.10;;;9.70;;
739;SDS011;354;42.694;23.336;2023-03-16T04:28:44;10.40;;;10.00;;
739;SDS011;354;42.694;23.336;2023-03-16T04:31:09;10.30;;;9.90;;
739;SDS011;354;42.694;23.336;2023-03-16T04:33:35;12.93;;;12.43;;
739;SDS011;354;42.694;23.336;2023-03-16T04:36:03;13.37;;;12.73;;
739;SDS011;354;42.694;23.336;2023-03-16T04:38:29;12.67;;;12.17;;
739;SDS011;354;42.694;23.336;2023-03-16T04:40:58;12.83;;;12.33;;
739;SDS011;354;42.694;23.336;2023-03-16T04:43:24;13.10;;;12.60;;
739;SDS011;354;42.694;23.336;2023-03-16T04:45:49;12.97;;;12.37;;
739;SDS011;354;42.694;23.336;2023-03-16T04:48:14;11.10;;;10.70;;
739;SDS011;354;42.694;23.336;2023-03-16T04:50:40;10.70;;;10.30;;
739;SDS011;354;42.694;23.336;2023-03-16T04:53:05;11.83;;;11.33;;
739;SDS011;354;42.694;23.336;2023-03-16T04:55:31;9.63;;;9.33;;
739;SDS011;354;42.694;23.336;2023-03-16T04:57:56;10.83;;;10.43;;
739;SDS011;354;42.694;23.336;2023-03-16T05:00:22;10.80;;;10.37;;
739;SDS011;354;42.694;23.336;2023-03-16T05:02:48;10.90;;;10.40;;
739;SDS011;354;42.694;23.336;2023-03-16T05:05:15;11.63;;;11.20;;
739;SDS011;354;42.694;23.336;2023-03-16T05:07:41;12.13;;;11.53;;
739;SDS011;354;42.694;23.336;2023-03-16T05:10:08;11.77;;;11.27;;
739;SDS011;354;42.694;23.336;2023-03-16T05:12:39;11.03;;;10.53;;
739;SDS011;354;42.694;23.336;2023-03-16T05:15:04;11.10;;;10.70;;
739;SDS011;354;42.694;23.336;2023-03-16T05:17:30;10.40;;;10.00;;
739;SDS011;354;42.694;23.336;2023-03-16T05:19:56;12.63;;;12.03;;
739;SDS011;354;42.694;23.336;2023-03-16T05:22:21;11.57;;;11.00;;
739;SDS011;354;42.694;23.336;2023-03-16T05:24:47;10.07;;;9.57;;
739;SDS011;354;42.694;23.336;2023-03-16T05:27:13;10.00;;;9.60;;
739;SDS011;354;42.694;23.336;2023-03-16T05:29:38;10.30;;;9.80;;
739;SDS011;354;42.694;23.336;2023-03-16T05:32:03;10.07;;;9.50;;
739;SDS011;354;42.694;23.336;2023-03-16T05:34:31;10.60;;;10.20;;
739;SDS011;354;42.694;23.336;2023-03-16T05:36:56;10.77;;;10.27;;
739;SDS011;354;42.694;23.336;2023-03-16T05:39:22;10.53;;;10.13;;
739;SDS011;354;42.694;23.336;2023-03-16T05:41:48;10.07;;;9.67;;
739;SDS011;354;42.694;23.336;2023-03-16T05:44:13;10.50;;;10.03;;
739;SDS011;354;42.694;23.336;2023-03-16T05:46:38;12.70;;;12.20;;
739;SDS011;354;42.694;23.336;2023-03-16T05:49:04;10.37;;;9.97;;
739;SDS011;354;42.694;23.336;2023-03-16T05:51:29;11.10;;;10.60;;
739;SDS011;354;42.694;23.336;2023-03-16T05:53:55;9.73;;;9.33;;
739;SDS011;354;42.694;23.336;2023-03-16T05:56:22;10.27;;;9.87;;
739;SDS011;354;42.694;23.336;2023-03-16T05:58:51;10.67;;;10.27;;
739;SDS011;354;42.694;23.336;2023-03-16T06:01:18;12.47;;;11.97;;
739;SDS011;354;42.694;23.336;2023-03-16T06:03:44;14.10;;;13.30;;
739;SDS011;354;42.694;23.336;2023-03-16T06:06:11;12.13;;;11.63;;
739;SDS011;354;42.694;23.336;2023-03-16T06:08:37;14.33;;;13.73;;
739;SDS011;354;42.694;23.336;2023-03-16T06:11:02;13.23;;;12.67;;
739;SDS011;354;42.694;23.336;2023-03-16T06:13:28;13.30;;;12.47;;
739;SDS011;354;42.694;23.336;2023-03-16T06:15:54;11.10;;;10.57;;
739;SDS011;354;42.694;23.336;2023-03-16T06:18:19;12.20;;;11.70;;
739;SDS011;354;42.694;23.336;2023-03-16T06:20:45;11.60;;;11.10;;
739;SDS011;354;42.694;23.336;2023-03-16T06:23:11;9.77;;;9.17;;
739;SDS011;354;42.694;23.336;2023-03-16T06:25:37;10.33;;;9.70;;
739;SDS011;354;42.694;23.336;2023-03-16T06:28:03;9.70;;;9.20;;
739;SDS011;354;42.694;23.336;2023-03-16T06:30:29;9.10;;;8.70;;
739;SDS011;354;42.694;23.336;2023-03-16T06:32:55;8.03;;;7.70;;
739;SDS011;354;42.694;23.336;2023-03-16T06:35:20;9.20;;;8.70;;
739;SDS011;354;42.694;23.336;2023-03-16T06:37:46;7.97;;;7.40;;
739;SDS011;354;42.694;23.336;2023-03-16T06:40:11;8.83;;;8.23;;
739;SDS011;354;42.694;23.336;2023-03-16T06:42:37;8.80;;;8.40;;
739;SDS011;354;42.694;23.336;2023-03-16T06:45:03;8.47;;;7.73;;
739;SDS011;354;42.694;23.336;2023-03-16T06:47:28;7.77;;;7.47;;
739;SDS011;354;42.694;23.336;2023-03-16T06:49:54;6.73;;;6.43;;
739;SDS011;354;42.694;23.336;2023-03-16T06:52:19;7.80;;;7.30;;
739;SDS011;354;42.694;23.336;2023-03-16T06:54:46;8.80;;;8.40;;
739;SDS011;354;42.694;23.336;2023-03-16T06:57:11;6.33;;;6.13;;
739;SDS011;354;42.694;23.336;2023-03-16T06:59:37;7.20;;;6.90;;
739;SDS011;354;42.694;23.336;2023-03-16T07:02:02;6.50;;;6.13;;
739;SDS011;354;42.694;23.336;2023-03-16T07:04:27;7.77;;;7.47;;
739;SDS011;354;42.694;23.336;2023-03-16T07:06:53;8.23;;;7.83;;
739;SDS011;354;42.694;23.336;2023-03-16T07:09:18;6.73;;;6.43;;
739;SDS011;354;42.694;23.336;2023-03-16T07:11:44;7.43;;;7.03;;
739;SDS011;354;42.694;23.336;2023-03-16T07:14:09;7.63;;;7.13;;
739;SDS011;354;42.694;23.336;2023-03-16T07:16:35;7.33;;;6.93;;
739;SDS011;354;42.694;23.336;2023-03-16T07:19:01;7.93;;;7.53;;
739;SDS011;354;42.694;23.336;2023-03-16T07:21:26;7.47;;;7.07;;
739;SDS011;354;42.694;23.336;2023-03-16T07:23:52;8.10;;;7.70;;
739;SDS011;354;42.694;23.336;2023-03-16T07:26:17;9.30;;;8.80;;
739;SDS011;354;42.694;23.336;2023-03-16T07:28:43;9.37;;;8.73;;
739;SDS011;354;42.694;23.336;2023-03-16T07:31:10;8.23;;;7.67;;
739;SDS011;354;42.694;23.336;2023-03-16T07:33:36;6.90;;;6.37;;
739;SDS011;354;42.694;23.336;2023-03-16T07:36:02;6.90;;;6.50;;
739;SDS011;354;42.694;23.336;2023-03-16T07:38:29;9.83;;;9.23;;
739;SDS011;354;42.694;23.336;2023-03-16T07:40:56;8.27;;;7.77;;
739;SDS011;354;42.694;23.336;2023-03-16T07:43:22;7.20;;;6.80;;
739;SDS011;354;42.694;23.336;2023-03-16T07:45:48;6.93;;;6.47;;
739;SDS011;354;42.694;23.336;2023-03-16T07:48:15;6.23;;;5.93;;
739;SDS011;354;42.694;23.336;2023-03-16T07:50:41;7.20;;;6.80;;
739;SDS011;354;42.694;23.336;2023-03-16T07:53:07;6.43;;;6.13;;
739;SDS011;354;42.694;23.336;2023-03-16T07:55:32;8.17;;;7.60;;
739;SDS011;354;42.694;23.336;2023-03-16T07:58:00;7.20;;;6.70;;
739;SDS011;354;42.694;23.336;2023-03-16T08:00:26;7.33;;;6.90;;
739;SDS011;354;42.694;23.336;2023-03-16T08:02:51;7.37;;;7.07;;
739;SDS011;354;42.694;23.336;2023-03-16T08:05:17;5.80;;;5.50;;
739;SDS011;354;42.694;23.336;2023-03-16T08:07:43;6.00;;;5.70;;
739;SDS011;354;42.694;23.336;2023-03-16T08:10:09;7.17;;;6.73;;
739;SDS011;354;42.694;23.336;2023-03-16T08:12:35;6.93;;;6.50;;
739;SDS011;354;42.694;23.336;2023-03-16T08:15:01;6.93;;;6.53;;
739;SDS011;354;42.694;23.336;2023-03-16T08:17:26;5.70;;;5.40;;
739;SDS011;354;42.694;23.336;2023-03-16T08:19:52;7.73;;;7.33;;
739;SDS011;354;42.694;23.336;2023-03-16T08:22:17;6.97;;;6.57;;
739;SDS011;354;42.694;23.336;2023-03-16T08:24:43;10.77;;;9.67;;
739;SDS011;354;42.694;23.336;2023-03-16T08:27:08;6.03;;;5.63;;
739;SDS011;354;42.694;23.336;2023-03-16T08:29:33;6.17;;;5.87;;
739;SDS011;354;42.694;23.336;2023-03-16T08:31:59;6.73;;;6.43;;
739;SDS011;354;42.694;23.336;2023-03-16T08:34:25;6.37;;;5.97;;
739;SDS011;354;42.694;23.336;2023-03-16T08:36:51;7.40;;;7.00;;
739;SDS011;354;42.694;23.336;2023-03-16T08:39:17;6.37;;;6.07;;
739;SDS011;354;42.694;23.336;2023-03-16T08:41:43;6.47;;;6.17;;
739;SDS011;354;42.694;23.336;2023-03-16T08:44:09;7.13;;;6.73;;
739;SDS011;354;42.694;23.336;2023-03-16T08:46:35;6.57;;;6.27;;
739;SDS011;354;42.694;23.336;2023-03-16T08:49:00;5.50;;;5.20;;
739;SDS011;354;42.694;23.336;2023-03-16T08:51:27;5.40;;;4.97;;
739;SDS011;354;42.694;23.336;2023-03-16T08:53:53;7.80;;;7.00;;
739;SDS011;354;42.694;23.336;2023-03-16T08:56:19;6.43;;;6.03;;
739;SDS011;354;42.694;23.336;2023-03-16T08:58:44;6.50;;;6.03;;
739;SDS011;354;42.694;23.336;2023-03-16T09:01:14;8.17;;;7.57;;
739;SDS011;354;42.694;23.336;2023-03-16T09:03:41;5.90;;;5.43;;
739;SDS011;354;42.694;23.336;2023-03-16T09:06:08;6.90;;;6.47;;
739;SDS011;354;42.694;23.336;2023-03-16T09:08:34;5.53;;;5.23;;
739;SDS011;354;42.694;23.336;2023-03-16T09:11:04;4.70;;;4.40;;
739;SDS011;354;42.694;23.336;2023-03-16T09:13:31;5.57;;;5.17;;
739;SDS011;354;42.694;23.336;2023-03-16T09:15:58;4.27;;;4.13;;
739;SDS011;354;42.694;23.336;2023-03-16T09:18:23;4.70;;;4.50;;
739;SDS011;354;42.694;23.336;2023-03-16T09:21:12;6.50;;;6.10;;
739;SDS011;354;42.694;23.336;2023-03-16T09:23:37;4.87;;;4.57;;
739;SDS011;354;42.694;23.336;2023-03-16T09:26:04;5.20;;;5.00;;
739;SDS011;354;42.694;23.336;2023-03-16T09:28:32;6.23;;;5.83;;
739;SDS011;354;42.694;23.336;2023-03-16T09:31:00;5.50;;;5.20;;
739;SDS011;354;42.694;23.336;2023-03-16T09:33:27;6.83;;;6.33;;
739;SDS011;354;42.694;23.336;2023-03-16T09:35:54;6.23;;;5.63;;
739;SDS011;354;42.694;23.336;2023-03-16T09:38:21;7.93;;;7.37;;
739;SDS011;354;42.694;23.336;2023-03-16T09:40:54;6.23;;;5.90;;
739;SDS011;354;42.694;23.336;2023-03-16T09:46:15;5.87;;;5.47;;
739;SDS011;354;42.694;23.336;2023-03-16T09:49:17;5.50;;;5.20;;
739;SDS011;354;42.694;23.336;2023-03-16T09:51:59;6.67;;;6.27;;
739;SDS011;354;42.694;23.336;2023-03-16T09:54:45;6.00;;;5.67;;
739;SDS011;354;42.694;23.336;2023-03-16T09:57:23;6.60;;;6.10;;
739;SDS011;354;42.694;23.336;2023-03-16T09:59:49;5.23;;;5.00;;
739;SDS011;354;42.694;23.336;2023-03-16T10:02:24;5.77;;;5.37;;
739;SDS011;354;42.694;23.336;2023-03-16T10:05:09;7.20;;;6.60;;
739;SDS011;354;42.694;23.336;2023-03-16T10:12:39;9.70;;;9.00;;
739;SDS011;354;42.694;23.336;2023-03-16T10:15:19;7.13;;;6.73;;
739;SDS011;354;42.694;23.336;2023-03-16T10:20:23;9.03;;;8.33;;
739;SDS011;354;42.694;23.336;2023-03-16T10:22:52;6.83;;;6.53;;
739;SDS011;354;42.694;23.336;2023-03-16T10:25:34;7.17;;;6.63;;
739;SDS011;354;42.694;23.336;2023-03-16T10:28:11;6.53;;;6.10;;
739;SDS011;354;42.694;23.336;2023-03-16T10:30:39;5.80;;;5.50;;
739;SDS011;354;42.694;23.336;2023-03-16T10:33:17;7.77;;;7.20;;
739;SDS011;354;42.694;23.336;2023-03-16T10:38:40;5.67;;;5.37;;
739;SDS011;354;42.694;23.336;2023-03-16T10:43:51;7.57;;;6.97;;
739;SDS011;354;42.694;23.336;2023-03-16T10:46:44;6.07;;;5.67;;
739;SDS011;354;42.694;23.336;2023-03-16T10:51:49;8.47;;;7.90;;
739;SDS011;354;42.694;23.336;2023-03-16T10:55:00;8.10;;;7.57;;
739;SDS011;354;42.694;23.336;2023-03-16T11:00:14;8.23;;;7.43;;
739;SDS011;354;42.694;23.336;2023-03-16T11:02:42;6.20;;;5.80;;
739;SDS011;354;42.694;23.336;2023-03-16T11:05:24;7.53;;;7.03;;
739;SDS011;354;42.694;23.336;2023-03-16T11:08:06;7.47;;;6.87;;
739;SDS011;354;42.694;23.336;2023-03-16T11:10:38;6.70;;;6.30;;
739;SDS011;354;42.694;23.336;2023-03-16T11:13:16;7.43;;;6.97;;
739;SDS011;354;42.694;23.336;2023-03-16T11:15:47;6.23;;;5.93;;
739;SDS011;354;42.694;23.336;2023-03-16T11:18:36;7.40;;;6.90;;
739;SDS011;354;42.694;23.336;2023-03-16T11:24:00;6.90;;;6.43;;
739;SDS011;354;42.694;23.336;2023-03-16T11:26:38;6.57;;;5.97;;
739;SDS011;354;42.694;23.336;2023-03-16T11:29:40;6.00;;;5.40;;
739;SDS011;354;42.694;23.336;2023-03-16T11:32:08;8.33;;;7.63;;
739;SDS011;354;42.694;23.336;2023-03-16T11:34:42;7.83;;;7.07;;
739;SDS011;354;42.694;23.336;2023-03-16T11:37:15;8.23;;;7.43;;
739;SDS011;354;42.694;23.336;2023-03-16T11:39:52;6.73;;;6.13;;
739;SDS011;354;42.694;23.336;2023-03-16T11:45:00;7.47;;;7.00;;
739;SDS011;354;42.694;23.336;2023-03-16T11:51:20;7.60;;;6.90;;
739;SDS011;354;42.694;23.336;2023-03-16T11:56:10;5.27;;;4.97;;
739;SDS011;354;42.694;23.336;2023-03-16T12:01:35;6.43;;;5.83;;
739;SDS011;354;42.694;23.336;2023-03-16T12:18:25;9.67;;;8.80;;
739;SDS011;354;42.694;23.336;2023-03-16T12:21:14;10.43;;;8.67;;
739;SDS011;354;42.694;23.336;2023-03-16T12:26:18;8.67;;;7.97;;
739;SDS011;354;42.694;23.336;2023-03-16T12:28:46;8.63;;;8.03;;
739;SDS011;354;42.694;23.336;2023-03-16T12:31:17;7.87;;;7.37;;
739;SDS011;354;42.694;23.336;2023-03-16T12:38:59;8.93;;;8.17;;
739;SDS011;354;42.694;23.336;2023-03-16T12:49:32;6.67;;;6.17;;
739;SDS011;354;42.694;23.336;2023-03-16T12:52:05;8.07;;;7.47;;
739;SDS011;354;42.694;23.336;2023-03-16T12:54:32;7.03;;;6.67;;
739;SDS011;354;42.694;23.336;2023-03-16T12:57:07;7.17;;;6.70;;
739;SDS011;354;42.694;23.336;2023-03-16T12:59:40;7.90;;;7.20;;
739;SDS011;354;42.694;23.336;2023-03-16T13:02:29;7.90;;;7.30;;
739;SDS011;354;42.694;23.336;2023-03-16T13:04:58;10.50;;;9.00;;
739;SDS011;354;42.694;23.336;2023-03-16T13:07:27;9.97;;;9.07;;
739;SDS011;354;42.694;23.336;2023-03-16T13:10:16;8.00;;;7.50;;
739;SDS011;354;42.694;23.336;2023-03-16T13:12:42;9.03;;;8.13;;
739;SDS011;354;42.694;23.336;2023-03-16T13:17:43;12.07;;;11.07;;
739;SDS011;354;42.694;23.336;2023-03-16T13:22:41;12.70;;;11.37;;
739;SDS011;354;42.694;23.336;2023-03-16T13:27:46;12.03;;;11.03;;
739;SDS011;354;42.694;23.336;2023-03-16T13:30:18;13.43;;;12.23;;
739;SDS011;354;42.694;23.336;2023-03-16T13:32:46;13.37;;;12.27;;
739;SDS011;354;42.694;23.336;2023-03-16T13:35:13;11.40;;;10.37;;
739;SDS011;354;42.694;23.336;2023-03-16T13:37:41;13.67;;;12.60;;
739;SDS011;354;42.694;23.336;2023-03-16T13:40:24;14.37;;;13.27;;
739;SDS011;354;42.694;23.336;2023-03-16T13:42:53;15.23;;;13.90;;
739;SDS011;354;42.694;23.336;2023-03-16T13:45:22;15.50;;;13.90;;
739;SDS011;354;42.694;23.336;2023-03-16T13:48:01;13.40;;;12.30;;
739;SDS011;354;42.694;23.336;2023-03-16T13:50:30;15.73;;;14.43;;
739;SDS011;354;42.694;23.336;2023-03-16T13:52:57;14.70;;;13.50;;
739;SDS011;354;42.694;23.336;2023-03-16T13:55:34;12.20;;;11.10;;
739;SDS011;354;42.694;23.336;2023-03-16T13:58:01;14.20;;;13.10;;
739;SDS011;354;42.694;23.336;2023-03-16T14:00:29;13.37;;;12.20;;
739;SDS011;354;42.694;23.336;2023-03-16T14:02:59;10.43;;;9.67;;
739;SDS011;354;42.694;23.336;2023-03-16T14:05:33;13.90;;;10.90;;
739;SDS011;354;42.694;23.336;2023-03-16T14:08:02;12.23;;;11.33;;
739;SDS011;354;42.694;23.336;2023-03-16T14:10:33;16.57;;;14.97;;
739;SDS011;354;42.694;23.336;2023-03-16T14:13:07;16.17;;;14.87;;
739;SDS011;354;42.694;23.336;2023-03-16T14:15:48;16.83;;;15.37;;
739;SDS011;354;42.694;23.336;2023-03-16T14:18:15;16.03;;;14.43;;
739;SDS011;354;42.694;23.336;2023-03-16T14:20:46;15.03;;;13.60;;
739;SDS011;354;42.694;23.336;2023-03-16T14:23:22;15.73;;;13.70;;
739;SDS011;354;42.694;23.336;2023-03-16T14:25:50;11.87;;;10.67;;
739;SDS011;354;42.694;23.336;2023-03-16T14:28:18;13.63;;;12.23;;
739;SDS011;354;42.694;23.336;2023-03-16T14:30:53;14.83;;;13.43;;
739;SDS011;354;42.694;23.336;2023-03-16T14:33:31;14.70;;;13.30;;
739;SDS011;354;42.694;23.336;2023-03-16T14:36:08;13.97;;;12.57;;
739;SDS011;354;42.694;23.336;2023-03-16T14:38:37;16.53;;;14.83;;
739;SDS011;354;42.694;23.336;2023-03-16T14:43:36;18.83;;;16.97;;
739;SDS011;354;42.694;23.336;2023-03-16T14:46:05;16.60;;;14.87;;
739;SDS011;354;42.694;23.336;2023-03-16T14:48:32;14.33;;;12.87;;
739;SDS011;354;42.694;23.336;2023-03-16T14:50:59;17.37;;;15.67;;
739;SDS011;354;42.694;23.336;2023-03-16T14:53:27;19.03;;;15.00;;
739;SDS011;354;42.694;23.336;2023-03-16T14:55:54;20.83;;;16.97;;
739;SDS011;354;42.694;23.336;2023-03-16T14:58:20;18.47;;;16.63;;
739;SDS011;354;42.694;23.336;2023-03-16T15:00:46;15.90;;;14.40;;
739;SDS011;354;42.694;23.336;2023-03-16T15:03:13;16.47;;;15.00;;
739;SDS011;354;42.694;23.336;2023-03-16T15:05:41;15.13;;;13.70;;
739;SDS011;354;42.694;23.336;2023-03-16T15:08:16;17.50;;;15.77;;
739;SDS011;354;42.694;23.336;2023-03-16T15:10:47;15.57;;;14.07;;
739;SDS011;354;42.694;23.336;2023-03-16T15:13:16;17.23;;;15.57;;
739;SDS011;354;42.694;23.336;2023-03-16T15:16:02;14.97;;;13.40;;
739;SDS011;354;42.694;23.336;2023-03-16T15:18:29;16.13;;;14.53;;
739;SDS011;354;42.694;23.336;2023-03-16T15:20:59;17.07;;;13.90;;
739;SDS011;354;42.694;23.336;2023-03-16T15:23:26;18.37;;;16.67;;
739;SDS011;354;42.694;23.336;2023-03-16T15:25:52;18.27;;;16.37;;
739;SDS011;354;42.694;23.336;2023-03-16T15:28:24;17.17;;;15.60;;
739;SDS011;354;42.694;23.336;2023-03-16T15:30:51;17.10;;;15.37;;
739;SDS011;354;42.694;23.336;2023-03-16T15:33:17;16.77;;;15.07;;
739;SDS011;354;42.694;23.336;2023-03-16T15:35:44;20.10;;;18.20;;
739;SDS011;354;42.694;23.336;2023-03-16T15:38:15;18.73;;;16.77;;
739;SDS011;354;42.694;23.336;2023-03-16T15:40:44;17.07;;;15.47;;
739;SDS011;354;42.694;23.336;2023-03-16T15:43:12;19.20;;;17.40;;
739;SDS011;354;42.694;23.336;2023-03-16T15:45:39;18.73;;;16.93;;
739;SDS011;354;42.694;23.336;2023-03-16T15:48:05;18.17;;;16.43;;
739;SDS011;354;42.694;23.336;2023-03-16T15:50:30;19.07;;;17.33;;
739;SDS011;354;42.694;23.336;2023-03-16T15:52:58;19.97;;;18.27;;
739;SDS011;354;42.694;23.336;2023-03-16T15:55:32;16.93;;;15.33;;
739;SDS011;354;42.694;23.336;2023-03-16T15:58:01;19.93;;;18.03;;
739;SDS011;354;42.694;23.336;2023-03-16T16:00:32;21.03;;;19.13;;
739;SDS011;354;42.694;23.336;2023-03-16T16:03:00;17.57;;;15.93;;
739;SDS011;354;42.694;23.336;2023-03-16T16:05:27;20.67;;;18.87;;
739;SDS011;354;42.694;23.336;2023-03-16T16:07:54;22.37;;;20.27;;
739;SDS011;354;42.694;23.336;2023-03-16T16:10:20;22.73;;;20.73;;
739;SDS011;354;42.694;23.336;2023-03-16T16:12:47;22.83;;;20.70;;
739;SDS011;354;42.694;23.336;2023-03-16T16:15:17;23.00;;;20.60;;
739;SDS011;354;42.694;23.336;2023-03-16T16:17:46;21.33;;;19.23;;
739;SDS011;354;42.694;23.336;2023-03-16T16:22:46;22.83;;;20.63;;
739;SDS011;354;42.694;23.336;2023-03-16T16:25:13;20.93;;;18.63;;
739;SDS011;354;42.694;23.336;2023-03-16T16:27:38;18.63;;;16.77;;
739;SDS011;354;42.694;23.336;2023-03-16T16:30:16;21.23;;;19.23;;
739;SDS011;354;42.694;23.336;2023-03-16T16:32:45;20.47;;;18.57;;
739;SDS011;354;42.694;23.336;2023-03-16T16:35:14;20.13;;;18.23;;
739;SDS011;354;42.694;23.336;2023-03-16T16:37:41;21.10;;;19.10;;
739;SDS011;354;42.694;23.336;2023-03-16T16:40:19;23.40;;;20.73;;
739;SDS011;354;42.694;23.336;2023-03-16T16:42:48;21.03;;;19.03;;
739;SDS011;354;42.694;23.336;2023-03-16T16:45:18;22.50;;;20.37;;
739;SDS011;354;42.694;23.336;2023-03-16T16:47:46;22.67;;;18.83;;
739;SDS011;354;42.694;23.336;2023-03-16T16:50:17;21.73;;;19.63;;